Česky Dansk Deutsch English Espańol Suomi Français Magyar Italiano Nederlands norsk Polski Portuguęs svenska Türkçe

 

Het Weer

Orleans (Frankrijk)

01:00, 20 augustus 2016 (GMT)

NWNNE
WE
SWSSE
Home            
Orleans Chateaudun Chartres Romorantin Villacoublay Paris-Orly Tours Melun Toussus Le Noble Paris Met Center Bourges Le Mans Paris / Le Bourget Evreux Avord Chateauroux Paris-Aeroport Charles De Gaulle Alencon Auxerre Nevers Creil Fafb Rouen Beauvais

Om een weerknop op uw website of weblog te plaatsen, copieer onderstaande code en plak die in uw pagina. In het eerste vakje staat HTML-code, in het tweede vakje UBB-code.


Add to Google

Details

Wind speed:3 bf, 7 kn, 3.6 m/s, 8.1 miles/h, 13.0 km/h
Wind direction:SW, 220°
Láthatóság általában:Nagyobb, mint 10000 m, 10 km, 32800 ft, 6.2 miles
Clouds:CAVOC
Hőmérséklet:16°C, 61°F
Harmatpont:15°C, 59°F
Légköri nyomás:1013 hPa, 759.8 mmHg, 29.91 inHg, 1.000 atm
Relatív páratartalom:93.8 %
METAR:LFOJ 200100Z AUTO 22007KT CAVOK 16/15 Q1013

Snelkoppelingen

Actuele weersinformatie van de hele wereld. Voeg locaties toe met het plus (+) symbool. Deze snelkoppelingen kunnen worden toegevoegd aan Google.

Lid van de Technetium groep

website free tracking
StatCounter NetStat W3C Validator

07-07-2022 01:30:08
astro.technetium.be money.technetium.be phote.technetium.be tafeltennistafel.technetium.be www.ligfiets.net